createdAt,value
2023-03-26T00:00:50.334Z,11.79
2023-03-26T00:03:22.644Z,11.80
2023-03-26T00:06:04.072Z,11.83
2023-03-26T00:08:38.423Z,11.83
2023-03-26T00:11:16.014Z,11.81
2023-03-26T00:13:49.660Z,11.79
2023-03-26T00:16:21.644Z,11.76
2023-03-26T00:18:53.797Z,11.74
2023-03-26T00:21:28.986Z,11.69
2023-03-26T00:24:06.791Z,11.65
2023-03-26T00:26:38.909Z,11.64
2023-03-26T00:29:11.980Z,11.64
2023-03-26T00:31:46.427Z,11.67
2023-03-26T00:34:18.887Z,11.71
2023-03-26T00:36:54.761Z,11.70
2023-03-26T00:39:27.379Z,11.69
2023-03-26T00:41:59.293Z,11.68
2023-03-26T00:44:31.444Z,11.68
2023-03-26T00:47:03.640Z,11.67
2023-03-26T00:49:35.745Z,11.55
2023-03-26T00:52:08.723Z,11.59
2023-03-26T00:54:40.980Z,11.56
2023-03-26T00:57:20.143Z,11.56
2023-03-26T00:59:57.707Z,11.49
2023-03-26T01:02:29.776Z,11.51
2023-03-26T01:05:36.989Z,11.49
2023-03-26T01:08:30.706Z,11.47
2023-03-26T01:11:33.450Z,11.35
2023-03-26T01:14:11.871Z,11.44
2023-03-26T01:16:52.782Z,11.43
2023-03-26T01:19:34.102Z,11.40
2023-03-26T01:22:11.242Z,11.42
2023-03-26T01:24:46.182Z,11.41
2023-03-26T01:27:28.026Z,11.44
2023-03-26T01:30:25.373Z,11.43
2023-03-26T01:33:19.440Z,11.38
2023-03-26T01:36:30.144Z,11.34
2023-03-26T01:39:49.685Z,11.35
2023-03-26T01:42:56.948Z,11.25
2023-03-26T01:45:36.189Z,11.29
2023-03-26T01:48:09.512Z,11.40
2023-03-26T01:50:41.651Z,11.32
2023-03-26T01:53:14.819Z,11.41
2023-03-26T01:56:18.716Z,11.32
2023-03-26T01:59:16.724Z,11.31
2023-03-26T02:02:02.478Z,11.39
2023-03-26T02:05:04.527Z,11.33
2023-03-26T02:07:52.165Z,11.25
2023-03-26T02:10:35.808Z,11.41
2023-03-26T02:13:07.902Z,11.41
2023-03-26T02:15:41.122Z,11.47
2023-03-26T02:18:13.550Z,11.52
2023-03-26T02:20:45.485Z,11.51
2023-03-26T02:23:17.443Z,11.46
2023-03-26T02:25:49.490Z,11.46
2023-03-26T02:28:21.559Z,11.42
2023-03-26T02:30:57.668Z,11.48
2023-03-26T02:33:31.488Z,11.48
2023-03-26T02:36:04.676Z,11.47
2023-03-26T02:38:36.608Z,11.42
2023-03-26T02:41:08.596Z,11.41
2023-03-26T02:43:40.561Z,11.41
2023-03-26T02:46:12.659Z,11.38
2023-03-26T02:48:44.668Z,11.42
2023-03-26T02:51:18.254Z,11.46
2023-03-26T02:53:50.195Z,11.47
2023-03-26T02:56:22.191Z,11.46
2023-03-26T02:58:54.436Z,11.47
2023-03-26T03:01:26.621Z,11.47
2023-03-26T03:03:58.654Z,11.45
2023-03-26T03:06:31.060Z,11.42
2023-03-26T03:09:03.329Z,11.38
2023-03-26T03:11:36.702Z,11.39
2023-03-26T03:14:08.828Z,11.37
2023-03-26T03:16:41.234Z,11.38
2023-03-26T03:19:13.898Z,11.39
2023-03-26T03:21:46.173Z,11.40
2023-03-26T03:24:18.693Z,11.40
2023-03-26T03:26:55.105Z,11.38
2023-03-26T03:29:26.994Z,11.38
2023-03-26T03:32:00.268Z,11.35
2023-03-26T03:34:32.274Z,11.33
2023-03-26T03:37:05.622Z,11.28
2023-03-26T03:39:37.715Z,11.32
2023-03-26T03:42:09.907Z,11.35
2023-03-26T03:44:41.891Z,11.36
2023-03-26T03:47:15.537Z,11.37
2023-03-26T03:49:47.455Z,11.37
2023-03-26T03:52:19.475Z,11.38
2023-03-26T03:54:51.868Z,11.41
2023-03-26T03:57:24.102Z,11.43
2023-03-26T03:59:58.262Z,11.43
2023-03-26T04:02:35.236Z,11.44
2023-03-26T04:05:07.652Z,11.39
2023-03-26T04:07:40.371Z,11.40
2023-03-26T04:10:16.119Z,11.42
2023-03-26T04:12:48.244Z,11.38
2023-03-26T04:15:20.405Z,11.41
2023-03-26T04:17:52.384Z,11.43
2023-03-26T04:20:24.404Z,11.48
2023-03-26T04:22:56.396Z,11.51
2023-03-26T04:25:30.506Z,11.57
2023-03-26T04:28:06.858Z,11.63
2023-03-26T04:30:42.342Z,11.61
2023-03-26T04:33:15.526Z,11.67
2023-03-26T04:35:48.553Z,11.69
2023-03-26T04:38:20.720Z,11.67
2023-03-26T04:40:53.164Z,11.69
2023-03-26T04:43:25.282Z,11.66
2023-03-26T04:45:57.430Z,11.68
2023-03-26T04:48:30.393Z,11.65
2023-03-26T04:51:02.673Z,11.61
2023-03-26T04:53:35.718Z,11.64
2023-03-26T04:56:22.027Z,11.63
2023-03-26T04:58:59.933Z,11.62
2023-03-26T05:01:33.209Z,11.64
2023-03-26T05:04:05.499Z,11.63
2023-03-26T05:06:38.095Z,11.62
2023-03-26T05:09:10.763Z,11.62
2023-03-26T05:11:42.733Z,11.60
2023-03-26T05:14:14.671Z,11.60
2023-03-26T05:16:50.322Z,11.59
2023-03-26T05:19:22.643Z,11.59
2023-03-26T05:21:54.642Z,11.58
2023-03-26T05:24:28.741Z,11.60
2023-03-26T05:27:00.664Z,11.58
2023-03-26T05:29:32.650Z,11.57
2023-03-26T05:32:04.977Z,11.57
2023-03-26T05:34:38.312Z,11.60
2023-03-26T05:37:10.281Z,11.62
2023-03-26T05:39:43.846Z,11.62
2023-03-26T05:42:15.783Z,11.60
2023-03-26T05:44:47.753Z,11.64
2023-03-26T05:47:19.692Z,11.60
2023-03-26T05:49:51.696Z,11.60
2023-03-26T05:52:23.606Z,11.62
2023-03-26T05:54:55.730Z,11.63
2023-03-26T05:57:31.113Z,11.55
2023-03-26T06:00:08.840Z,11.56
2023-03-26T06:02:42.777Z,11.63
2023-03-26T06:05:14.949Z,11.59
2023-03-26T06:07:46.950Z,11.60
2023-03-26T06:10:19.235Z,11.59
2023-03-26T06:12:51.184Z,11.60
2023-03-26T06:15:23.505Z,11.57
2023-03-26T06:17:56.167Z,11.59
2023-03-26T06:21:24.553Z,11.44
2023-03-26T06:23:57.075Z,11.46
2023-03-26T06:26:29.026Z,11.51
2023-03-26T06:29:01.297Z,11.49
2023-03-26T06:31:51.576Z,11.43
2023-03-26T06:34:23.539Z,11.39
2023-03-26T06:36:56.417Z,11.36
2023-03-26T06:39:28.475Z,10.92
2023-03-26T06:42:00.719Z,11.23
2023-03-26T06:44:33.053Z,11.36
2023-03-26T06:47:06.003Z,10.22
2023-03-26T06:49:38.520Z,10.95
2023-03-26T06:52:10.853Z,10.14
2023-03-26T06:54:43.086Z,11.26
2023-03-26T06:57:15.770Z,11.33
2023-03-26T06:59:52.366Z,11.29
2023-03-26T07:02:25.182Z,10.15
2023-03-26T07:04:58.647Z,10.33
2023-03-26T07:07:31.833Z,10.10
2023-03-26T07:10:08.261Z,9.99
2023-03-26T07:12:41.749Z,10.71
2023-03-26T07:15:18.990Z,10.67
2023-03-26T07:17:53.534Z,10.53
2023-03-26T07:20:26.416Z,10.14
2023-03-26T07:22:59.650Z,10.81
2023-03-26T07:25:35.679Z,10.15
2023-03-26T07:29:03.715Z,11.28
2023-03-26T07:32:08.452Z,10.08
2023-03-26T07:34:58.557Z,10.14
2023-03-26T07:38:06.229Z,11.26
2023-03-26T07:40:38.212Z,11.30
2023-03-26T07:43:48.145Z,11.27
2023-03-26T07:46:29.749Z,11.33
2023-03-26T07:49:05.105Z,11.31
2023-03-26T07:51:37.889Z,10.91
2023-03-26T07:54:11.792Z,10.46
2023-03-26T07:57:04.362Z,11.32
2023-03-26T08:00:01.379Z,11.38
2023-03-26T08:03:10.021Z,11.42
2023-03-26T08:05:57.311Z,11.46
2023-03-26T08:09:13.440Z,11.44
2023-03-26T08:11:57.167Z,11.15
2023-03-26T08:15:23.273Z,11.51
2023-03-26T08:18:10.592Z,11.54
2023-03-26T08:20:50.353Z,11.41
2023-03-26T08:24:00.769Z,11.56
2023-03-26T08:26:51.437Z,11.56
2023-03-26T08:29:42.270Z,11.58
2023-03-26T08:32:18.778Z,10.54
2023-03-26T08:34:52.808Z,10.76
2023-03-26T08:37:29.682Z,11.30
2023-03-26T08:40:01.803Z,11.63
2023-03-26T08:43:24.588Z,11.39
2023-03-26T08:46:15.348Z,11.64
2023-03-26T08:49:13.082Z,11.67
2023-03-26T08:52:06.846Z,11.72
2023-03-26T08:55:36.646Z,11.67
2023-03-26T08:59:05.702Z,11.66
2023-03-26T09:01:49.575Z,11.75
2023-03-26T09:04:41.428Z,11.53
2023-03-26T09:07:41.393Z,11.77
2023-03-26T09:11:03.722Z,11.74
2023-03-26T09:13:41.995Z,11.78
2023-03-26T09:16:38.632Z,11.74
2023-03-26T09:19:41.901Z,11.73
2023-03-26T09:22:51.973Z,11.71
2023-03-26T09:26:11.421Z,11.63
2023-03-26T09:29:28.871Z,11.67
2023-03-26T09:32:38.207Z,11.64
2023-03-26T09:35:50.473Z,11.63
2023-03-26T09:38:48.029Z,11.57
2023-03-26T09:42:05.218Z,11.54
2023-03-26T09:45:10.689Z,11.74
2023-03-26T09:48:06.011Z,11.86
2023-03-26T09:51:19.236Z,11.91
2023-03-26T09:54:23.578Z,11.96
2023-03-26T09:57:25.613Z,11.96
2023-03-26T10:00:25.571Z,11.90
2023-03-26T10:03:30.730Z,11.80
2023-03-26T10:06:37.353Z,11.74
2023-03-26T10:09:26.264Z,11.81
2023-03-26T10:12:25.009Z,11.80
2023-03-26T10:15:25.410Z,11.76
2023-03-26T10:18:27.697Z,11.74
2023-03-26T10:21:10.579Z,11.75
2023-03-26T10:24:09.858Z,11.75
2023-03-26T10:27:24.766Z,11.69
2023-03-26T10:30:49.478Z,11.58
2023-03-26T10:34:19.422Z,11.67
2023-03-26T10:37:22.090Z,11.73
2023-03-26T10:40:06.006Z,11.81
2023-03-26T10:42:59.698Z,11.86
2023-03-26T10:46:29.343Z,11.82
2023-03-26T10:49:10.234Z,11.89
2023-03-26T10:51:59.945Z,11.83
2023-03-26T10:54:52.363Z,11.83
2023-03-26T10:57:39.657Z,11.77
2023-03-26T11:00:16.692Z,11.84
2023-03-26T11:03:24.874Z,11.85
2023-03-26T11:06:19.884Z,11.83
2023-03-26T11:09:08.602Z,11.88
2023-03-26T11:12:25.572Z,12.00
2023-03-26T11:15:33.125Z,12.04
2023-03-26T11:18:58.132Z,11.98
2023-03-26T11:22:06.343Z,12.13
2023-03-26T11:25:15.244Z,12.10
2023-03-26T11:28:02.243Z,12.21
2023-03-26T11:31:06.650Z,12.21
2023-03-26T11:33:47.812Z,12.28
2023-03-26T11:36:29.915Z,12.04
2023-03-26T11:39:10.923Z,12.42
2023-03-26T11:41:43.775Z,12.50
2023-03-26T11:44:38.109Z,11.45
2023-03-26T11:47:16.356Z,12.39
2023-03-26T11:49:54.003Z,12.41
2023-03-26T11:52:30.587Z,12.02
2023-03-26T11:55:05.292Z,12.61
2023-03-26T11:57:43.289Z,12.45
2023-03-26T12:00:23.169Z,12.59
2023-03-26T12:02:59.323Z,12.58
2023-03-26T12:05:36.810Z,12.14
2023-03-26T12:08:27.200Z,12.57
2023-03-26T12:11:12.785Z,11.54
2023-03-26T12:14:05.814Z,12.56
2023-03-26T12:16:38.151Z,12.34
2023-03-26T12:19:22.474Z,12.44
2023-03-26T12:21:56.590Z,12.40
2023-03-26T12:24:33.193Z,11.95
2023-03-26T12:27:26.209Z,12.80
2023-03-26T12:30:22.578Z,12.66
2023-03-26T12:33:26.441Z,12.74
2023-03-26T12:36:00.605Z,12.61
2023-03-26T12:38:36.063Z,12.36
2023-03-26T12:43:40.558Z,12.56
2023-03-26T12:44:54.978Z,12.64
2023-03-26T12:48:00.564Z,11.92
2023-03-26T12:50:18.603Z,11.76
2023-03-26T12:53:47.244Z,12.62
2023-03-26T12:57:12.464Z,12.59
2023-03-26T13:00:06.686Z,12.77
2023-03-26T13:03:00.253Z,12.75
2023-03-26T13:05:58.471Z,12.60
2023-03-26T13:09:07.269Z,12.59
2023-03-26T13:11:56.132Z,12.73
2023-03-26T13:15:25.270Z,12.68
2023-03-26T13:18:52.952Z,12.71
2023-03-26T13:21:42.516Z,12.81
2023-03-26T13:24:35.896Z,12.54
2023-03-26T13:27:28.427Z,12.92
2023-03-26T13:30:21.883Z,12.91
2023-03-26T13:33:38.574Z,12.43
2023-03-26T13:36:43.216Z,13.01
2023-03-26T13:39:31.684Z,12.78
2023-03-26T13:42:37.656Z,13.24
2023-03-26T13:45:43.304Z,13.29
2023-03-26T13:48:49.161Z,13.27
2023-03-26T13:51:44.803Z,12.80
2023-03-26T13:54:28.435Z,13.33
2023-03-26T13:57:29.533Z,12.97
2023-03-26T14:00:15.085Z,13.07
2023-03-26T14:02:59.527Z,12.62
2023-03-26T14:05:42.734Z,12.14
2023-03-26T14:08:33.362Z,12.55
2023-03-26T14:11:13.278Z,12.57
2023-03-26T14:13:52.895Z,12.75
2023-03-26T14:16:53.771Z,12.71
2023-03-26T14:20:01.321Z,12.68
2023-03-26T14:23:05.532Z,12.65
2023-03-26T14:26:15.611Z,12.60
2023-03-26T14:29:40.636Z,12.46
2023-03-26T14:33:03.296Z,12.44
2023-03-26T14:36:03.720Z,12.27
2023-03-26T14:39:02.883Z,12.27
2023-03-26T14:42:12.895Z,12.22
2023-03-26T14:45:05.909Z,12.17
2023-03-26T14:48:37.341Z,12.14
2023-03-26T14:51:20.387Z,11.93
2023-03-26T14:54:02.740Z,12.28
2023-03-26T14:57:09.419Z,12.21
2023-03-26T15:00:07.341Z,12.18
2023-03-26T15:03:10.006Z,12.18
2023-03-26T15:06:06.641Z,12.22
2023-03-26T15:09:23.074Z,12.24
2023-03-26T15:12:54.827Z,12.12
2023-03-26T15:16:11.700Z,12.04
2023-03-26T15:19:40.705Z,11.99
2023-03-26T15:23:12.385Z,12.00
2023-03-26T15:26:16.173Z,12.08
2023-03-26T15:29:09.733Z,12.16
2023-03-26T15:32:13.889Z,12.18
2023-03-26T15:35:17.003Z,12.13
2023-03-26T15:38:10.828Z,11.59
2023-03-26T15:41:26.027Z,12.03
2023-03-26T15:44:22.302Z,12.06
2023-03-26T15:47:36.157Z,11.98
2023-03-26T15:50:29.632Z,12.05
2023-03-26T15:53:35.219Z,12.11
2023-03-26T15:56:22.301Z,12.19
2023-03-26T15:59:28.406Z,11.99
2023-03-26T16:02:19.195Z,12.18
2023-03-26T16:05:21.980Z,11.44
2023-03-26T16:08:27.782Z,12.13
2023-03-26T16:11:07.727Z,11.67
2023-03-26T16:14:17.424Z,11.84
2023-03-26T16:17:02.122Z,12.11
2023-03-26T16:20:33.664Z,12.01
2023-03-26T16:23:24.634Z,11.79
2023-03-26T16:26:18.791Z,11.54
2023-03-26T16:29:28.656Z,12.26
2023-03-26T16:32:16.603Z,12.32
2023-03-26T16:35:00.453Z,12.26
2023-03-26T16:37:33.716Z,12.31
2023-03-26T16:40:17.982Z,12.24
2023-03-26T16:43:58.969Z,12.17
2023-03-26T16:47:27.710Z,12.04
2023-03-26T16:50:36.493Z,12.04
2023-03-26T16:53:33.705Z,12.06
2023-03-26T16:56:11.786Z,12.06
2023-03-26T16:58:53.797Z,12.01
2023-03-26T17:01:45.808Z,11.97
2023-03-26T17:04:27.950Z,11.93
2023-03-26T17:07:37.802Z,12.05
2023-03-26T17:11:02.163Z,11.81
2023-03-26T17:14:11.085Z,11.76
2023-03-26T17:17:03.740Z,11.85
2023-03-26T17:19:42.971Z,11.68
2023-03-26T17:22:40.704Z,11.66
2023-03-26T17:25:57.608Z,11.63
2023-03-26T17:28:44.573Z,11.63
2023-03-26T17:31:57.282Z,11.52
2023-03-26T17:34:54.388Z,11.54
2023-03-26T17:37:47.932Z,11.06
2023-03-26T17:40:56.941Z,11.41
2023-03-26T17:43:52.458Z,11.60
2023-03-26T17:46:37.313Z,11.01
2023-03-26T17:49:12.020Z,11.64
2023-03-26T17:51:58.354Z,10.98
2023-03-26T17:54:44.272Z,11.46
2023-03-26T17:57:40.316Z,11.54
2023-03-26T18:00:42.609Z,11.35
2023-03-26T18:03:31.137Z,11.34
2023-03-26T18:06:47.955Z,11.41
2023-03-26T18:09:57.902Z,11.34
2023-03-26T18:12:53.390Z,11.54
2023-03-26T18:15:39.891Z,11.36
2023-03-26T18:18:22.283Z,11.29
2023-03-26T18:20:57.641Z,10.95
2023-03-26T18:23:44.210Z,11.33
2023-03-26T18:26:31.619Z,11.22
2023-03-26T18:29:26.690Z,11.27
2023-03-26T18:32:22.077Z,10.88
2023-03-26T18:34:59.968Z,11.07
2023-03-26T18:37:36.113Z,11.09
2023-03-26T18:40:21.529Z,10.65
2023-03-26T18:42:58.580Z,10.90
2023-03-26T18:45:39.613Z,11.08
2023-03-26T18:48:19.211Z,11.01
2023-03-26T18:51:05.425Z,11.04
2023-03-26T18:53:45.150Z,11.01
2023-03-26T18:56:36.787Z,11.15
2023-03-26T18:59:31.665Z,10.69
2023-03-26T19:02:12.029Z,11.14
2023-03-26T19:04:47.119Z,11.03
2023-03-26T19:07:24.936Z,11.16
2023-03-26T19:09:57.238Z,10.87
2023-03-26T19:12:33.217Z,10.92
2023-03-26T19:15:12.911Z,10.85
2023-03-26T19:17:49.367Z,10.39
2023-03-26T19:20:28.006Z,10.80
2023-03-26T19:23:00.232Z,10.79
2023-03-26T19:25:46.146Z,10.69
2023-03-26T19:28:24.800Z,10.26
2023-03-26T19:31:09.309Z,10.61
2023-03-26T19:33:44.294Z,10.58
2023-03-26T19:36:29.765Z,10.58
2023-03-26T19:39:02.459Z,10.47
2023-03-26T19:41:41.122Z,10.24
2023-03-26T19:44:28.908Z,10.31
2023-03-26T19:47:19.277Z,10.25
2023-03-26T19:50:07.354Z,9.80
2023-03-26T19:52:39.510Z,10.42
2023-03-26T19:55:27.199Z,10.41
2023-03-26T19:57:59.486Z,10.42
2023-03-26T20:00:34.760Z,10.43
2023-03-26T20:03:08.977Z,10.43
2023-03-26T20:05:41.283Z,10.37
2023-03-26T20:08:26.839Z,10.27
2023-03-26T20:10:59.651Z,10.36
2023-03-26T20:13:31.934Z,9.85
2023-03-26T20:16:21.182Z,10.45
2023-03-26T20:18:57.292Z,10.50
2023-03-26T20:21:32.272Z,10.30
2023-03-26T20:24:16.979Z,10.41
2023-03-26T20:26:48.902Z,10.39
2023-03-26T20:29:21.016Z,10.37
2023-03-26T20:31:53.104Z,10.34
2023-03-26T20:34:25.152Z,10.01
2023-03-26T20:37:01.118Z,10.35
2023-03-26T20:39:33.468Z,9.46
2023-03-26T20:42:05.957Z,10.01
2023-03-26T20:44:38.117Z,10.26
2023-03-26T20:47:11.711Z,10.26
2023-03-26T20:49:43.855Z,9.98
2023-03-26T20:52:15.831Z,10.12
2023-03-26T20:54:48.982Z,9.32
2023-03-26T20:57:21.062Z,10.02
2023-03-26T20:59:55.889Z,9.99
2023-03-26T21:02:28.003Z,9.95
2023-03-26T21:05:00.146Z,9.78
2023-03-26T21:07:34.856Z,9.71
2023-03-26T21:10:08.253Z,9.80
2023-03-26T21:13:08.521Z,9.56
2023-03-26T21:15:40.898Z,9.62
2023-03-26T21:18:13.572Z,9.67
2023-03-26T21:21:01.435Z,9.45
2023-03-26T21:24:36.129Z,9.56
2023-03-26T21:27:41.969Z,9.60
2023-03-26T21:30:16.703Z,9.56
2023-03-26T21:32:49.421Z,9.57
2023-03-26T21:35:22.022Z,9.59
2023-03-26T21:37:57.669Z,9.51
2023-03-26T21:40:29.957Z,9.44
2023-03-26T21:43:02.367Z,9.43
2023-03-26T21:45:34.924Z,9.37
2023-03-26T21:48:07.717Z,9.47
2023-03-26T21:50:40.462Z,9.31
2023-03-26T21:53:22.526Z,9.52
2023-03-26T21:56:26.344Z,9.51
2023-03-26T21:59:39.957Z,9.40
2023-03-26T22:02:27.936Z,9.39
2023-03-26T22:05:26.667Z,9.35
2023-03-26T22:08:04.733Z,9.37
2023-03-26T22:10:38.433Z,9.13
2023-03-26T22:13:10.563Z,9.44
2023-03-26T22:15:43.338Z,8.94
2023-03-26T22:18:15.713Z,9.43
2023-03-26T22:20:49.492Z,9.32
2023-03-26T22:23:21.493Z,9.12
2023-03-26T22:25:53.505Z,9.02
2023-03-26T22:28:30.795Z,9.11
2023-03-26T22:31:09.481Z,9.29
2023-03-26T22:33:41.864Z,9.10
2023-03-26T22:36:23.135Z,9.18
2023-03-26T22:38:58.721Z,9.23
2023-03-26T22:41:30.763Z,9.23
2023-03-26T22:44:16.888Z,9.12
2023-03-26T22:46:52.467Z,8.54
2023-03-26T22:49:30.288Z,9.14
2023-03-26T22:52:02.386Z,9.13
2023-03-26T22:54:38.748Z,8.96
2023-03-26T22:57:11.123Z,8.84
2023-03-26T22:59:43.620Z,8.55
2023-03-26T23:02:16.760Z,8.89
2023-03-26T23:04:48.899Z,8.99
2023-03-26T23:07:20.959Z,8.94
2023-03-26T23:09:53.806Z,8.37
2023-03-26T23:12:25.758Z,8.44
2023-03-26T23:14:58.388Z,8.95
2023-03-26T23:17:35.785Z,8.92
2023-03-26T23:20:14.895Z,8.86
2023-03-26T23:22:47.230Z,8.58
2023-03-26T23:25:20.187Z,8.71
2023-03-26T23:27:53.784Z,8.50
2023-03-26T23:30:25.872Z,8.64
2023-03-26T23:32:58.135Z,8.65
2023-03-26T23:35:30.308Z,8.64
2023-03-26T23:38:02.374Z,8.65
2023-03-26T23:40:34.415Z,8.65
2023-03-26T23:43:06.939Z,8.72
2023-03-26T23:45:44.968Z,8.74
2023-03-26T23:48:23.307Z,8.71
2023-03-26T23:51:04.453Z,8.28
2023-03-26T23:53:36.653Z,8.63
2023-03-26T23:56:13.562Z,8.20
2023-03-26T23:58:45.646Z,8.73
